createdAt,value
2019-06-20T00:01:03.710Z,97192.92
2019-06-20T00:02:07.369Z,97192.92
2019-06-20T00:03:11.591Z,97196.62
2019-06-20T00:04:15.221Z,97195.05
2019-06-20T00:05:19.454Z,97189.60
2019-06-20T00:06:23.048Z,97194.86
2019-06-20T00:07:27.260Z,97195.27
2019-06-20T00:08:30.914Z,97189.62
2019-06-20T00:09:35.049Z,97197.78
2019-06-20T00:10:38.696Z,97195.85
2019-06-20T00:11:42.868Z,97189.42
2019-06-20T00:12:59.486Z,97187.27
2019-06-20T00:13:52.326Z,97187.27
2019-06-20T00:14:55.805Z,97175.80
2019-06-20T00:16:00.035Z,97176.56
2019-06-20T00:17:03.645Z,97177.56
2019-06-20T00:18:07.852Z,97173.47
2019-06-20T00:19:11.478Z,97171.50
2019-06-20T00:20:16.412Z,97177.56
2019-06-20T00:21:20.296Z,97183.02
2019-06-20T00:22:24.490Z,97180.29
2019-06-20T00:23:28.131Z,97179.13
2019-06-20T00:24:32.281Z,97178.91
2019-06-20T00:25:35.888Z,97179.90
2019-06-20T00:26:40.120Z,97174.45
2019-06-20T00:27:43.810Z,97181.46
2019-06-20T00:28:47.887Z,97174.06
2019-06-20T00:29:51.509Z,97170.94
2019-06-20T00:30:55.591Z,97176.38
2019-06-20T00:31:59.169Z,97187.48
2019-06-20T00:33:03.429Z,97181.83
2019-06-20T00:34:06.981Z,97182.42
2019-06-20T00:35:11.795Z,97182.80
2019-06-20T00:36:15.478Z,97179.71
2019-06-20T00:37:20.018Z,97184.00
2019-06-20T00:38:24.013Z,97179.71
2019-06-20T00:39:28.287Z,97181.66
2019-06-20T00:40:31.940Z,97176.59
2019-06-20T00:41:36.348Z,97182.62
2019-06-20T00:42:39.906Z,97181.47
2019-06-20T00:43:44.175Z,97178.14
2019-06-20T00:44:48.103Z,97183.02
2019-06-20T00:45:52.243Z,97180.69
2019-06-20T00:46:55.923Z,97179.70
2019-06-20T00:48:00.133Z,97172.91
2019-06-20T00:49:04.057Z,97173.28
2019-06-20T00:50:09.049Z,97181.09
2019-06-20T00:51:12.682Z,97178.74
2019-06-20T00:52:16.905Z,97182.45
2019-06-20T00:53:20.798Z,97184.95
2019-06-20T00:54:25.071Z,97187.30
2019-06-20T00:55:28.775Z,97184.38
2019-06-20T00:56:32.938Z,97190.61
2019-06-20T00:57:36.633Z,97188.67
2019-06-20T00:58:41.172Z,97188.07
2019-06-20T00:59:44.857Z,97190.41
2019-06-20T01:00:49.061Z,97184.95
2019-06-20T01:01:52.708Z,97191.02
2019-06-20T01:02:57.247Z,97189.25
2019-06-20T01:04:00.810Z,97191.19
2019-06-20T01:05:06.152Z,97190.98
2019-06-20T01:06:09.730Z,97189.63
2019-06-20T01:07:13.954Z,97191.97
2019-06-20T01:08:17.519Z,97185.54
2019-06-20T01:09:21.741Z,97191.19
2019-06-20T01:10:25.333Z,97185.74
2019-06-20T01:11:29.484Z,97192.55
2019-06-20T01:12:33.047Z,97194.49
2019-06-20T01:13:37.136Z,97195.08
2019-06-20T01:14:40.729Z,97193.34
2019-06-20T01:15:44.902Z,97193.14
2019-06-20T01:16:48.747Z,97192.73
2019-06-20T01:17:52.961Z,97192.53
2019-06-20T01:18:56.592Z,97186.13
2019-06-20T01:20:00.763Z,97193.90
2019-06-20T01:21:04.434Z,97183.98
2019-06-20T01:22:08.990Z,97186.71
2019-06-20T01:23:12.526Z,97186.91
2019-06-20T01:24:16.682Z,97188.08
2019-06-20T01:25:41.743Z,97189.44
2019-06-20T01:26:45.926Z,97186.71
2019-06-20T01:27:49.429Z,97184.95
2019-06-20T01:28:53.648Z,97187.30
2019-06-20T01:29:57.267Z,97184.58
2019-06-20T01:31:01.851Z,97184.00
2019-06-20T01:32:05.520Z,97187.67
2019-06-20T01:33:09.724Z,97191.19
2019-06-20T01:34:13.303Z,97192.73
2019-06-20T01:35:17.513Z,97191.95
2019-06-20T01:36:21.169Z,97190.36
2019-06-20T01:37:25.374Z,97193.63
2019-06-20T01:38:29.003Z,97191.90
2019-06-20T01:39:33.362Z,97189.93
2019-06-20T01:40:37.008Z,97200.45
2019-06-20T01:41:41.217Z,97193.03
2019-06-20T01:42:44.891Z,97201.43
2019-06-20T01:43:50.887Z,97200.64
2019-06-20T01:44:54.389Z,97199.69
2019-06-20T01:45:58.531Z,97199.46
2019-06-20T01:47:02.175Z,97196.33
2019-06-20T01:48:06.437Z,97196.53
2019-06-20T01:49:10.114Z,97193.41
2019-06-20T01:50:14.820Z,97200.00
2019-06-20T01:51:18.378Z,97194.16
2019-06-20T01:52:22.563Z,97199.59
2019-06-20T01:53:26.301Z,97192.80
2019-06-20T01:54:30.507Z,97196.67
2019-06-20T01:55:34.152Z,97193.54
2019-06-20T01:56:38.278Z,97193.33
2019-06-20T01:57:41.908Z,97196.27
2019-06-20T01:58:46.103Z,97196.05
2019-06-20T01:59:49.686Z,97197.21
2019-06-20T02:00:53.869Z,97198.20
2019-06-20T02:01:57.523Z,97197.79
2019-06-20T02:03:01.898Z,97198.56
2019-06-20T02:04:05.877Z,97197.41
2019-06-20T02:05:11.173Z,97199.55
2019-06-20T02:06:14.802Z,97202.65
2019-06-20T02:07:19.028Z,97202.86
2019-06-20T02:08:22.653Z,97200.91
2019-06-20T02:09:26.928Z,97201.87
2019-06-20T02:10:30.490Z,97198.73
2019-06-20T02:11:34.661Z,97201.86
2019-06-20T02:12:38.155Z,97197.37
2019-06-20T02:13:42.309Z,97198.14
2019-06-20T02:14:45.841Z,97198.73
2019-06-20T02:15:50.050Z,97199.14
2019-06-20T02:16:53.734Z,97192.88
2019-06-20T02:17:57.835Z,97196.00
2019-06-20T02:19:01.482Z,97194.06
2019-06-20T02:20:07.603Z,97194.23
2019-06-20T02:21:11.224Z,97198.94
2019-06-20T02:22:15.808Z,97200.67
2019-06-20T02:23:19.451Z,97196.02
2019-06-20T02:24:23.677Z,97199.31
2019-06-20T02:25:27.320Z,97201.86
2019-06-20T02:26:31.528Z,97202.03
2019-06-20T02:27:35.069Z,97206.52
2019-06-20T02:28:39.312Z,97205.37
2019-06-20T02:29:42.937Z,97204.38
2019-06-20T02:30:47.489Z,97208.88
2019-06-20T02:31:51.045Z,97199.14
2019-06-20T02:32:55.337Z,97205.58
2019-06-20T02:33:58.983Z,97202.48
2019-06-20T02:35:03.232Z,97208.30
2019-06-20T02:36:06.870Z,97211.64
2019-06-20T02:37:11.043Z,97208.88
2019-06-20T02:38:14.670Z,97208.47
2019-06-20T02:39:18.890Z,97208.88
2019-06-20T02:40:22.837Z,97212.59
2019-06-20T02:41:27.047Z,97207.92
2019-06-20T02:42:30.684Z,97210.45
2019-06-20T02:43:34.972Z,97211.80
2019-06-20T02:44:38.628Z,97215.89
2019-06-20T02:45:42.865Z,97217.99
2019-06-20T02:46:46.515Z,97223.26
2019-06-20T02:47:50.618Z,97229.06
2019-06-20T02:48:54.251Z,97226.34
2019-06-20T02:49:58.470Z,97221.28
2019-06-20T02:51:02.755Z,97224.41
2019-06-20T02:52:06.993Z,97222.28
2019-06-20T02:53:10.985Z,97217.45
2019-06-20T02:54:15.718Z,97225.03
2019-06-20T02:55:19.365Z,97228.14
2019-06-20T02:56:23.613Z,97222.52
2019-06-20T02:57:27.186Z,97223.88
2019-06-20T02:58:31.446Z,97226.98
2019-06-20T02:59:34.972Z,97224.67
2019-06-20T03:00:50.774Z,97230.69
2019-06-20T03:01:54.451Z,97229.91
2019-06-20T03:02:58.611Z,97234.19
2019-06-20T03:04:02.244Z,97227.97
2019-06-20T03:05:07.756Z,97230.69
2019-06-20T03:06:11.430Z,97227.19
2019-06-20T03:07:15.678Z,97233.41
2019-06-20T03:08:19.306Z,97228.34
2019-06-20T03:09:23.948Z,97224.47
2019-06-20T03:10:27.510Z,97222.11
2019-06-20T03:11:32.103Z,97223.27
2019-06-20T03:12:35.788Z,97222.89
2019-06-20T03:13:40.010Z,97224.84
2019-06-20T03:14:45.771Z,97222.94
2019-06-20T03:15:50.188Z,97220.01
2019-06-20T03:16:53.957Z,97223.52
2019-06-20T03:17:58.210Z,97224.05
2019-06-20T03:19:01.800Z,97228.72
2019-06-20T03:20:06.845Z,97234.73
2019-06-20T03:21:10.422Z,97235.72
2019-06-20T03:22:14.574Z,97238.07
2019-06-20T03:23:18.250Z,97233.41
2019-06-20T03:24:22.493Z,97231.27
2019-06-20T03:25:26.147Z,97234.78
2019-06-20T03:26:30.283Z,97243.31
2019-06-20T03:27:33.851Z,97240.59
2019-06-20T03:28:38.038Z,97239.23
2019-06-20T03:29:42.077Z,97239.23
2019-06-20T03:30:46.290Z,97237.28
2019-06-20T03:31:49.939Z,97243.47
2019-06-20T03:32:54.403Z,97239.70
2019-06-20T03:33:58.274Z,97235.60
2019-06-20T03:35:02.495Z,97247.86
2019-06-20T03:36:06.145Z,97243.40
2019-06-20T03:37:10.628Z,97243.77
2019-06-20T03:38:14.250Z,97246.13
2019-06-20T03:39:18.893Z,97241.68
2019-06-20T03:40:22.716Z,97242.41
2019-06-20T03:41:26.943Z,97241.22
2019-06-20T03:42:30.935Z,97245.30
2019-06-20T03:43:35.082Z,97241.44
2019-06-20T03:44:38.747Z,97245.97
2019-06-20T03:45:42.825Z,97244.25
2019-06-20T03:46:46.399Z,97239.80
2019-06-20T03:47:50.614Z,97240.02
2019-06-20T03:48:54.271Z,97243.73
2019-06-20T03:49:58.514Z,97246.24
2019-06-20T03:51:02.186Z,97239.64
2019-06-20T03:52:06.326Z,97237.30
2019-06-20T03:53:10.171Z,97245.30
2019-06-20T03:54:14.383Z,97242.03
2019-06-20T03:55:18.783Z,97247.08
2019-06-20T03:56:23.025Z,97244.77
2019-06-20T03:57:26.880Z,97248.67
2019-06-20T03:58:30.982Z,97248.09
2019-06-20T03:59:34.608Z,97248.47
2019-06-20T04:00:39.082Z,97250.41
2019-06-20T04:01:42.766Z,97250.98
2019-06-20T04:02:46.935Z,97245.55
2019-06-20T04:03:50.585Z,97242.61
2019-06-20T04:04:54.731Z,97243.98
2019-06-20T04:05:58.399Z,97240.09
2019-06-20T04:07:05.038Z,97249.83
2019-06-20T04:08:08.680Z,97244.97
2019-06-20T04:09:13.897Z,97241.83
2019-06-20T04:10:17.542Z,97243.98
2019-06-20T04:11:21.685Z,97244.38
2019-06-20T04:12:25.786Z,97244.38
2019-06-20T04:13:29.939Z,97245.95
2019-06-20T04:14:33.521Z,97243.81
2019-06-20T04:15:37.667Z,97247.34
2019-06-20T04:16:41.255Z,97242.66
2019-06-20T04:17:45.549Z,97238.77
2019-06-20T04:18:49.119Z,97240.92
2019-06-20T04:19:53.197Z,97241.30
2019-06-20T04:20:57.043Z,97243.64
2019-06-20T04:22:01.439Z,97243.64
2019-06-20T04:23:06.159Z,97247.93
2019-06-20T04:24:11.431Z,97249.09
2019-06-20T04:25:16.854Z,97242.83
2019-06-20T04:26:22.842Z,97246.53
2019-06-20T04:27:26.506Z,97248.47
2019-06-20T04:28:30.674Z,97249.09
2019-06-20T04:29:35.979Z,97248.64
2019-06-20T04:30:40.377Z,97252.27
2019-06-20T04:31:46.934Z,97253.20
2019-06-20T04:32:51.060Z,97253.62
2019-06-20T04:33:54.626Z,97252.05
2019-06-20T04:35:00.250Z,97251.48
2019-06-20T04:36:03.885Z,97254.05
2019-06-20T04:37:08.254Z,97252.55
2019-06-20T04:38:12.883Z,97258.00
2019-06-20T04:39:19.599Z,97255.48
2019-06-20T04:40:22.415Z,97255.08
2019-06-20T04:41:26.580Z,97249.09
2019-06-20T04:42:30.597Z,97259.41
2019-06-20T04:43:34.801Z,97252.42
2019-06-20T04:44:38.579Z,97251.47
2019-06-20T04:45:43.878Z,97259.64
2019-06-20T04:47:05.510Z,97258.13
2019-06-20T04:48:09.164Z,97253.84
2019-06-20T04:49:13.331Z,97252.66
2019-06-20T04:50:17.011Z,97251.90
2019-06-20T04:51:21.250Z,97252.30
2019-06-20T04:52:24.844Z,97256.96
2019-06-20T04:53:29.079Z,97254.84
2019-06-20T04:54:33.987Z,97256.23
2019-06-20T04:55:38.143Z,97253.50
2019-06-20T04:56:41.716Z,97250.97
2019-06-20T04:57:47.128Z,97251.15
2019-06-20T04:58:50.686Z,97252.53
2019-06-20T04:59:55.939Z,97254.48
2019-06-20T05:00:59.891Z,97250.97
2019-06-20T05:02:04.065Z,97244.95
2019-06-20T05:03:07.557Z,97245.53
2019-06-20T05:04:11.805Z,97249.98
2019-06-20T05:05:15.751Z,97249.82
2019-06-20T05:06:19.990Z,97250.78
2019-06-20T05:07:23.549Z,97254.08
2019-06-20T05:08:27.772Z,97251.75
2019-06-20T05:09:31.737Z,97254.68
2019-06-20T05:10:35.996Z,97250.39
2019-06-20T05:11:39.698Z,97248.83
2019-06-20T05:12:43.901Z,97246.08
2019-06-20T05:13:47.587Z,97247.63
2019-06-20T05:14:51.724Z,97244.13
2019-06-20T05:15:55.317Z,97240.62
2019-06-20T05:16:59.457Z,97237.11
2019-06-20T05:18:03.504Z,97240.64
2019-06-20T05:19:07.658Z,97239.27
2019-06-20T05:20:11.630Z,97241.81
2019-06-20T05:21:15.965Z,97244.35
2019-06-20T05:22:19.581Z,97243.77
2019-06-20T05:23:23.734Z,97246.30
2019-06-20T05:24:29.301Z,97241.81
2019-06-20T05:25:33.523Z,97243.38
2019-06-20T05:26:37.151Z,97246.89
2019-06-20T05:27:41.335Z,97245.91
2019-06-20T05:28:44.992Z,97239.88
2019-06-20T05:29:49.309Z,97246.68
2019-06-20T05:30:52.939Z,97248.26
2019-06-20T05:31:57.163Z,97244.93
2019-06-20T05:33:00.755Z,97246.50
2019-06-20T05:34:05.553Z,97249.23
2019-06-20T05:35:09.605Z,97250.39
2019-06-20T05:36:13.854Z,97249.63
2019-06-20T05:37:17.475Z,97249.22
2019-06-20T05:38:21.677Z,97244.73
2019-06-20T05:39:25.522Z,97253.11
2019-06-20T05:40:29.744Z,97253.72
2019-06-20T05:41:33.395Z,97251.95
2019-06-20T05:42:37.629Z,97258.17
2019-06-20T05:43:41.294Z,97261.30
2019-06-20T05:44:45.835Z,97263.23
2019-06-20T05:45:49.484Z,97264.41
2019-06-20T05:47:08.546Z,97264.81
2019-06-20T05:47:59.328Z,97265.39
2019-06-20T05:49:03.476Z,97269.86
2019-06-20T05:50:09.132Z,97261.30
2019-06-20T05:51:13.397Z,97257.80
2019-06-20T05:52:17.464Z,97258.98
2019-06-20T05:53:21.866Z,97259.95
2019-06-20T05:54:25.421Z,97258.78
2019-06-20T05:55:29.666Z,97251.78
2019-06-20T05:56:33.241Z,97257.80
2019-06-20T05:57:37.476Z,97261.91
2019-06-20T05:58:41.046Z,97255.66
2019-06-20T05:59:45.207Z,97257.20
2019-06-20T06:00:48.876Z,97264.79
2019-06-20T06:01:56.266Z,97267.13
2019-06-20T06:02:58.431Z,97268.31
2019-06-20T06:04:02.507Z,97264.20
2019-06-20T06:05:07.573Z,97266.55
2019-06-20T06:06:12.532Z,97264.77
2019-06-20T06:07:16.326Z,97263.79
2019-06-20T06:08:20.548Z,97260.48
2019-06-20T06:09:24.746Z,97267.48
2019-06-20T06:10:29.114Z,97258.13
2019-06-20T06:11:32.790Z,97258.33
2019-06-20T06:12:37.055Z,97256.97
2019-06-20T06:13:40.593Z,97254.06
2019-06-20T06:14:47.622Z,97251.11
2019-06-20T06:15:51.256Z,97246.23
2019-06-20T06:16:55.526Z,97251.90
2019-06-20T06:17:59.155Z,97243.72
2019-06-20T06:19:03.244Z,97246.80
2019-06-20T06:20:07.993Z,97247.56
2019-06-20T06:21:12.237Z,97246.19
2019-06-20T06:22:18.233Z,97237.59
2019-06-20T06:23:22.389Z,97242.45
2019-06-20T06:24:25.959Z,97240.07
2019-06-20T06:25:30.181Z,97240.88
2019-06-20T06:26:33.787Z,97244.02
2019-06-20T06:27:38.089Z,97240.11
2019-06-20T06:28:41.636Z,97244.20
2019-06-20T06:29:45.848Z,97239.69
2019-06-20T06:30:49.494Z,97241.75
2019-06-20T06:31:53.752Z,97240.78
2019-06-20T06:32:57.406Z,97242.97
2019-06-20T06:34:01.561Z,97241.63
2019-06-20T06:35:06.975Z,97237.06
2019-06-20T06:36:11.210Z,97240.69
2019-06-20T06:37:14.813Z,97237.12
2019-06-20T06:38:21.777Z,97235.84
2019-06-20T06:39:24.333Z,97235.03
2019-06-20T06:40:28.556Z,97235.84
2019-06-20T06:41:32.210Z,97233.05
2019-06-20T06:42:36.478Z,97229.48
2019-06-20T06:43:42.076Z,97233.30
2019-06-20T06:44:46.074Z,97232.44
2019-06-20T06:45:49.641Z,97232.19
2019-06-20T06:46:59.327Z,97231.12
2019-06-20T06:47:59.208Z,97234.98
2019-06-20T06:49:03.354Z,97232.05
2019-06-20T06:50:07.881Z,97228.16
2019-06-20T06:51:12.108Z,97233.38
2019-06-20T06:52:15.742Z,97228.59
2019-06-20T06:53:19.964Z,97237.50
2019-06-20T06:54:23.547Z,97233.70
2019-06-20T06:55:28.069Z,97232.30
2019-06-20T06:56:31.651Z,97230.84
2019-06-20T06:57:35.902Z,97222.97
2019-06-20T06:58:39.931Z,97224.44
2019-06-20T06:59:44.166Z,97220.00
2019-06-20T07:00:48.295Z,97224.73
2019-06-20T07:01:52.409Z,97220.17
2019-06-20T07:02:56.067Z,97222.77
2019-06-20T07:04:00.239Z,97220.01
2019-06-20T07:05:05.619Z,97220.27
2019-06-20T07:06:10.259Z,97221.29
2019-06-20T07:07:13.883Z,97221.26
2019-06-20T07:08:18.101Z,97217.63
2019-06-20T07:09:21.717Z,97224.28
2019-06-20T07:10:26.052Z,97217.53
2019-06-20T07:11:29.704Z,97219.09
2019-06-20T07:12:33.925Z,97211.77
2019-06-20T07:13:37.563Z,97204.94
2019-06-20T07:14:42.835Z,97213.05
2019-06-20T07:15:47.079Z,97209.67
2019-06-20T07:17:00.197Z,97204.88
2019-06-20T07:17:57.075Z,97203.50
2019-06-20T07:19:01.287Z,97206.48
2019-06-20T07:20:07.060Z,97204.27
2019-06-20T07:21:11.257Z,97206.86
2019-06-20T07:22:14.916Z,97206.98
2019-06-20T07:23:19.089Z,97209.33
2019-06-20T07:24:22.591Z,97203.77
2019-06-20T07:25:26.841Z,97207.62
2019-06-20T07:26:30.521Z,97202.61
2019-06-20T07:27:34.761Z,97201.72
2019-06-20T07:28:38.402Z,97205.06
2019-06-20T07:29:42.612Z,97199.17
2019-06-20T07:30:46.279Z,97201.91
2019-06-20T07:31:50.914Z,97202.04
2019-06-20T07:32:54.512Z,97202.34
2019-06-20T07:33:58.677Z,97200.48
2019-06-20T07:35:02.235Z,97201.78
2019-06-20T07:36:07.086Z,97197.59
2019-06-20T07:37:10.736Z,97201.55
2019-06-20T07:38:14.810Z,97194.19
2019-06-20T07:39:18.471Z,97193.67
2019-06-20T07:40:23.007Z,97192.36
2019-06-20T07:41:26.740Z,97194.70
2019-06-20T07:42:30.951Z,97183.85
2019-06-20T07:43:34.533Z,97193.67
2019-06-20T07:44:38.751Z,97190.73
2019-06-20T07:45:42.403Z,97189.71
2019-06-20T07:46:46.586Z,97191.59
2019-06-20T07:47:50.211Z,97190.23
2019-06-20T07:48:54.710Z,97190.08
2019-06-20T07:49:58.340Z,97191.77
2019-06-20T07:51:02.610Z,97184.42
2019-06-20T07:52:06.275Z,97188.63
2019-06-20T07:53:10.408Z,97182.20
2019-06-20T07:54:14.067Z,97187.56
2019-06-20T07:55:18.297Z,97179.05
2019-06-20T07:56:22.207Z,97185.33
2019-06-20T07:57:26.357Z,97180.84
2019-06-20T07:58:29.970Z,97178.44
2019-06-20T07:59:34.124Z,97182.36
2019-06-20T08:00:37.775Z,97177.00
2019-06-20T08:01:41.873Z,97180.78
2019-06-20T08:02:45.532Z,97173.70
2019-06-20T08:03:49.751Z,97176.11
2019-06-20T08:04:53.393Z,97171.63
2019-06-20T08:05:57.622Z,97176.05
2019-06-20T08:07:01.273Z,97167.70
2019-06-20T08:08:06.433Z,97168.55
2019-06-20T08:09:11.442Z,97168.55
2019-06-20T08:10:17.077Z,97167.00
2019-06-20T08:11:20.713Z,97175.13
2019-06-20T08:12:25.001Z,97171.62
2019-06-20T08:13:28.644Z,97168.92
2019-06-20T08:14:32.971Z,97176.27
2019-06-20T08:15:36.596Z,97164.19
2019-06-20T08:16:40.763Z,97164.17
2019-06-20T08:17:44.572Z,97161.12
2019-06-20T08:18:48.943Z,97163.56
2019-06-20T08:19:52.629Z,97162.73
2019-06-20T08:20:56.860Z,97166.96
2019-06-20T08:22:00.413Z,97166.98
2019-06-20T08:23:06.428Z,97164.70
2019-06-20T08:24:10.019Z,97165.94
2019-06-20T08:25:14.574Z,97167.11
2019-06-20T08:26:18.209Z,97159.38
2019-06-20T08:27:23.491Z,97156.19
2019-06-20T08:28:27.073Z,97159.17
2019-06-20T08:29:31.643Z,97149.56
2019-06-20T08:30:36.417Z,97151.44
2019-06-20T08:31:46.042Z,97154.24
2019-06-20T08:32:49.856Z,97149.84
2019-06-20T08:33:54.085Z,97148.80
2019-06-20T08:34:59.129Z,97143.92
2019-06-20T08:36:04.573Z,97147.67
2019-06-20T08:37:08.267Z,97145.70
2019-06-20T08:38:12.411Z,97141.85
2019-06-20T08:39:16.050Z,97143.23
2019-06-20T08:40:20.792Z,97144.50
2019-06-20T08:41:24.473Z,97144.34
2019-06-20T08:42:28.618Z,97140.07
2019-06-20T08:43:32.182Z,97140.52
2019-06-20T08:44:36.401Z,97134.53
2019-06-20T08:45:41.989Z,97134.98
2019-06-20T08:46:46.708Z,97133.44
2019-06-20T08:47:50.326Z,97134.56
2019-06-20T08:48:54.935Z,97130.12
2019-06-20T08:49:59.917Z,97127.18
2019-06-20T08:51:04.533Z,97129.20
2019-06-20T08:52:08.363Z,97125.94
2019-06-20T08:53:12.562Z,97129.15
2019-06-20T08:54:16.216Z,97132.98
2019-06-20T08:55:20.654Z,97126.03
2019-06-20T08:56:24.221Z,97129.44
2019-06-20T08:57:28.571Z,97124.83
2019-06-20T08:58:32.215Z,97120.83
2019-06-20T08:59:36.452Z,97122.53
2019-06-20T09:00:40.481Z,97126.66
2019-06-20T09:01:44.713Z,97126.66
2019-06-20T09:02:48.373Z,97121.71
2019-06-20T09:03:55.139Z,97123.13
2019-06-20T09:04:58.104Z,97123.89
2019-06-20T09:07:05.893Z,97122.17
2019-06-20T09:08:11.535Z,97122.29
2019-06-20T09:09:15.424Z,97123.52
2019-06-20T09:10:21.543Z,97116.53
2019-06-20T09:11:25.189Z,97119.16
2019-06-20T09:12:29.400Z,97114.19
2019-06-20T09:13:33.131Z,97110.60
2019-06-20T09:14:37.297Z,97109.00
2019-06-20T09:15:42.316Z,97107.43
2019-06-20T09:16:46.533Z,97108.23
2019-06-20T09:17:50.497Z,97100.98
2019-06-20T09:18:55.351Z,97099.87
2019-06-20T09:20:00.304Z,97095.53
2019-06-20T09:21:04.601Z,97093.09
2019-06-20T09:22:08.232Z,97094.80
2019-06-20T09:23:12.453Z,97090.55
2019-06-20T09:24:16.134Z,97087.48
2019-06-20T09:25:20.720Z,97083.63
2019-06-20T09:26:24.355Z,97076.72
2019-06-20T09:27:29.053Z,97081.66
2019-06-20T09:28:32.926Z,97077.00
2019-06-20T09:29:41.821Z,97074.56
2019-06-20T09:30:42.524Z,97073.14
2019-06-20T09:31:46.784Z,97070.48
2019-06-20T09:32:52.243Z,97075.84
2019-06-20T09:33:56.273Z,97072.60
2019-06-20T09:34:59.933Z,97069.41
2019-06-20T09:36:04.169Z,97074.53
2019-06-20T09:37:07.810Z,97073.69
2019-06-20T09:38:12.011Z,97072.38
2019-06-20T09:39:15.657Z,97073.84
2019-06-20T09:40:20.127Z,97075.25
2019-06-20T09:41:23.749Z,97072.92
2019-06-20T09:42:27.912Z,97069.78
2019-06-20T09:43:31.417Z,97077.69
2019-06-20T09:44:35.623Z,97082.30
2019-06-20T09:45:39.695Z,97080.23
2019-06-20T09:46:43.921Z,97081.58
2019-06-20T09:47:47.568Z,97078.80
2019-06-20T09:48:52.765Z,97080.30
2019-06-20T09:49:58.634Z,97077.12
2019-06-20T09:51:03.219Z,97079.78
2019-06-20T09:52:07.044Z,97081.44
2019-06-20T09:53:11.272Z,97068.15
2019-06-20T09:54:14.913Z,97078.33
2019-06-20T09:55:19.848Z,97078.70
2019-06-20T09:56:23.462Z,97078.04
2019-06-20T09:57:28.020Z,97074.66
2019-06-20T09:58:31.574Z,97076.48
2019-06-20T09:59:36.312Z,97076.80
2019-06-20T10:00:40.122Z,97080.62
2019-06-20T10:01:44.606Z,97082.16
2019-06-20T10:02:48.948Z,97078.34
2019-06-20T10:03:54.761Z,97078.68
2019-06-20T10:04:58.411Z,97080.70
2019-06-20T10:06:12.923Z,97083.22
2019-06-20T10:07:08.094Z,97083.52
2019-06-20T10:08:12.225Z,97082.42
2019-06-20T10:09:15.781Z,97080.37
2019-06-20T10:10:20.826Z,97078.75
2019-06-20T10:11:24.384Z,97078.45
2019-06-20T10:12:28.645Z,97072.30
2019-06-20T10:13:32.876Z,97072.17
2019-06-20T10:14:37.169Z,97072.56
2019-06-20T10:15:40.902Z,97074.41
2019-06-20T10:16:48.688Z,97072.94
2019-06-20T10:17:51.014Z,97072.16
2019-06-20T10:18:56.472Z,97074.98
2019-06-20T10:20:00.469Z,97074.41
2019-06-20T10:21:04.766Z,97077.50
2019-06-20T10:22:08.400Z,97074.92
2019-06-20T10:23:12.656Z,97073.41
2019-06-20T10:24:16.334Z,97073.42
2019-06-20T10:25:21.408Z,97071.56
2019-06-20T10:26:25.026Z,97068.48
2019-06-20T10:27:29.230Z,97067.09
2019-06-20T10:28:32.911Z,97067.59
2019-06-20T10:29:37.166Z,97060.65
2019-06-20T10:30:41.022Z,97061.14
2019-06-20T10:31:46.237Z,97059.13
2019-06-20T10:32:51.204Z,97062.36
2019-06-20T10:33:56.876Z,97064.19
2019-06-20T10:35:00.578Z,97067.41
2019-06-20T10:36:05.139Z,97066.35
2019-06-20T10:37:08.707Z,97067.28
2019-06-20T10:38:12.859Z,97072.82
2019-06-20T10:39:16.550Z,97071.89
2019-06-20T10:40:21.870Z,97076.17
2019-06-20T10:41:25.492Z,97077.10
2019-06-20T10:42:29.706Z,97076.66
2019-06-20T10:43:33.325Z,97080.56
2019-06-20T10:44:37.593Z,97086.84
2019-06-20T10:45:41.159Z,97088.03
2019-06-20T10:46:46.150Z,97086.91
2019-06-20T10:47:51.096Z,97085.95
2019-06-20T10:48:55.314Z,97084.31
2019-06-20T10:49:58.958Z,97083.97
2019-06-20T10:51:20.282Z,97079.97
2019-06-20T10:52:23.921Z,97073.20
2019-06-20T10:53:28.061Z,97082.06
2019-06-20T10:54:31.626Z,97077.72
2019-06-20T10:55:35.968Z,97068.02
2019-06-20T10:56:40.438Z,97075.52
2019-06-20T10:57:46.788Z,97073.36
2019-06-20T10:58:50.758Z,97072.42
2019-06-20T10:59:55.080Z,97073.78
2019-06-20T11:00:58.658Z,97074.55
2019-06-20T11:02:02.881Z,97069.47
2019-06-20T11:03:08.433Z,97065.48
2019-06-20T11:04:12.661Z,97065.48
2019-06-20T11:05:18.149Z,97073.45
2019-06-20T11:06:22.405Z,97076.55
2019-06-20T11:07:26.216Z,97075.38
2019-06-20T11:08:30.452Z,97080.60
2019-06-20T11:09:34.071Z,97083.77
2019-06-20T11:10:39.829Z,97083.25
2019-06-20T11:11:44.811Z,97078.77
2019-06-20T11:12:55.257Z,97080.05
2019-06-20T11:13:54.485Z,97085.44
2019-06-20T11:14:58.666Z,97090.80
2019-06-20T11:16:02.399Z,97088.03
2019-06-20T11:17:06.657Z,97096.72
2019-06-20T11:18:10.648Z,97094.19
2019-06-20T11:19:14.872Z,97097.56
2019-06-20T11:20:18.998Z,97102.03
2019-06-20T11:21:23.276Z,97098.33
2019-06-20T11:22:26.986Z,97102.30
2019-06-20T11:23:31.178Z,97093.11
2019-06-20T11:24:34.738Z,97093.72
2019-06-20T11:25:40.329Z,97092.13
2019-06-20T11:26:45.896Z,97088.12
2019-06-20T11:27:50.673Z,97088.59
2019-06-20T11:28:54.601Z,97084.05
2019-06-20T11:29:59.957Z,97083.65
2019-06-20T11:31:03.600Z,97086.45
2019-06-20T11:32:07.863Z,97087.39
2019-06-20T11:33:11.563Z,97083.31
2019-06-20T11:34:15.786Z,97077.22
2019-06-20T11:35:19.438Z,97079.88
2019-06-20T11:36:23.522Z,97080.38
2019-06-20T11:37:27.167Z,97078.89
2019-06-20T11:38:31.381Z,97082.20
2019-06-20T11:39:36.229Z,97076.41
2019-06-20T11:40:41.626Z,97076.92
2019-06-20T11:41:45.336Z,97080.70
2019-06-20T11:42:49.522Z,97081.49
2019-06-20T11:43:53.115Z,97082.89
2019-06-20T11:44:57.397Z,97085.09
2019-06-20T11:46:00.959Z,97081.11
2019-06-20T11:47:05.203Z,97086.23
2019-06-20T11:48:08.852Z,97084.27
2019-06-20T11:49:12.943Z,97086.44
2019-06-20T11:50:18.884Z,97090.47
2019-06-20T11:51:23.020Z,97092.65
2019-06-20T11:52:26.644Z,97097.58
2019-06-20T11:53:31.866Z,97099.45
2019-06-20T11:54:36.680Z,97095.00
2019-06-20T11:55:41.180Z,97099.63
2019-06-20T11:56:44.797Z,97092.88
2019-06-20T11:57:48.982Z,97095.65
2019-06-20T11:58:52.662Z,97096.98
2019-06-20T11:59:57.176Z,97089.96
2019-06-20T12:01:03.822Z,97078.16
2019-06-20T12:02:06.717Z,97086.80
2019-06-20T12:03:10.353Z,97088.80
2019-06-20T12:04:14.585Z,97083.58
2019-06-20T12:05:18.608Z,97083.90
2019-06-20T12:06:22.673Z,97082.35
2019-06-20T12:07:26.392Z,97079.74
2019-06-20T12:08:30.584Z,97086.19
2019-06-20T12:09:36.530Z,97081.42
2019-06-20T12:10:40.917Z,97080.52
2019-06-20T12:11:44.595Z,97084.19
2019-06-20T12:12:49.184Z,97083.13
2019-06-20T12:13:53.035Z,97085.25
2019-06-20T12:14:57.274Z,97086.80
2019-06-20T12:16:00.832Z,97088.95
2019-06-20T12:17:05.242Z,97084.80
2019-06-20T12:18:08.888Z,97085.25
2019-06-20T12:19:13.113Z,97082.80
2019-06-20T12:20:17.787Z,97090.94
2019-06-20T12:21:22.051Z,97086.18
2019-06-20T12:22:25.645Z,97087.57
2019-06-20T12:23:29.780Z,97085.12
2019-06-20T12:24:33.462Z,97081.09
2019-06-20T12:25:39.028Z,97086.80
2019-06-20T12:26:42.922Z,97088.19
2019-06-20T12:27:47.701Z,97086.34
2019-06-20T12:28:51.650Z,97086.34
2019-06-20T12:29:55.850Z,97083.42
2019-06-20T12:30:59.856Z,97085.58
2019-06-20T12:32:04.066Z,97083.13
2019-06-20T12:33:07.728Z,97072.95
2019-06-20T12:34:11.973Z,97076.33
2019-06-20T12:35:15.583Z,97075.83
2019-06-20T12:36:19.813Z,97073.77